Terminal Aerodrome Forecast
Issued by NWS Billings, MT

Home | Current Version | Previous Version | Text Only | Print | Product List | Glossary Off
Versions: 1 2 3 4 5 6 7 8 9 10 11 12 13 14 15 16 17 18 19 20 21 22 23 24

000
FTUS45 KBYZ 162331
TAFMLS
TAF
KMLS 162331Z 1700/1724 16009KT P6SM FEW120 SCT200
     FM170300 23011KT P6SM VCSH BKN100 BKN200
     FM171000 25012KT P6SM FEW100 SCT250=

USA.gov is the U.S. government's official web portal to all federal, state and local government web resources and services.